sensor_id;sensor_type;location;lat;lon;timestamp;temperature;humidity
22779;DHT22;11556;51.194;3.800;2023-09-18T00:00:25;22.00;99.90
22779;DHT22;11556;51.194;3.800;2023-09-18T00:02:51;22.00;99.90
22779;DHT22;11556;51.194;3.800;2023-09-18T00:05:17;22.00;99.90
22779;DHT22;11556;51.194;3.800;2023-09-18T00:07:43;22.00;99.90
22779;DHT22;11556;51.194;3.800;2023-09-18T00:10:12;22.00;99.90
22779;DHT22;11556;51.194;3.800;2023-09-18T00:12:38;22.20;99.90
22779;DHT22;11556;51.194;3.800;2023-09-18T00:15:05;22.20;99.90
22779;DHT22;11556;51.194;3.800;2023-09-18T00:17:31;22.20;99.90
22779;DHT22;11556;51.194;3.800;2023-09-18T00:19:56;22.10;99.90
22779;DHT22;11556;51.194;3.800;2023-09-18T00:22:22;22.10;99.90
22779;DHT22;11556;51.194;3.800;2023-09-18T00:24:50;22.20;99.90
22779;DHT22;11556;51.194;3.800;2023-09-18T00:27:15;22.10;99.90
22779;DHT22;11556;51.194;3.800;2023-09-18T00:29:42;22.10;99.90
22779;DHT22;11556;51.194;3.800;2023-09-18T00:32:07;22.20;99.90
22779;DHT22;11556;51.194;3.800;2023-09-18T00:34:33;22.10;99.90
22779;DHT22;11556;51.194;3.800;2023-09-18T00:36:59;22.10;99.90
22779;DHT22;11556;51.194;3.800;2023-09-18T00:39:26;22.10;99.90
22779;DHT22;11556;51.194;3.800;2023-09-18T00:41:51;22.10;99.90
22779;DHT22;11556;51.194;3.800;2023-09-18T00:44:25;22.20;99.90
22779;DHT22;11556;51.194;3.800;2023-09-18T00:46:52;22.10;99.90
22779;DHT22;11556;51.194;3.800;2023-09-18T00:49:18;22.20;99.90
22779;DHT22;11556;51.194;3.800;2023-09-18T00:51:45;22.10;99.90
22779;DHT22;11556;51.194;3.800;2023-09-18T00:54:14;22.10;99.90
22779;DHT22;11556;51.194;3.800;2023-09-18T00:56:40;22.10;99.90
22779;DHT22;11556;51.194;3.800;2023-09-18T00:59:06;22.10;99.90
22779;DHT22;11556;51.194;3.800;2023-09-18T01:01:32;22.00;99.90
22779;DHT22;11556;51.194;3.800;2023-09-18T01:03:58;22.10;99.90
22779;DHT22;11556;51.194;3.800;2023-09-18T01:06:25;22.20;99.90
22779;DHT22;11556;51.194;3.800;2023-09-18T01:08:53;22.10;99.90
22779;DHT22;11556;51.194;3.800;2023-09-18T01:11:36;22.10;99.90
22779;DHT22;11556;51.194;3.800;2023-09-18T01:14:24;22.10;99.90
22779;DHT22;11556;51.194;3.800;2023-09-18T01:16:58;22.00;99.90
22779;DHT22;11556;51.194;3.800;2023-09-18T01:19:41;22.00;99.90
22779;DHT22;11556;51.194;3.800;2023-09-18T01:22:09;22.10;99.90
22779;DHT22;11556;51.194;3.800;2023-09-18T01:24:37;22.00;99.90
22779;DHT22;11556;51.194;3.800;2023-09-18T01:27:03;21.90;99.90
22779;DHT22;11556;51.194;3.800;2023-09-18T01:29:30;21.90;99.90
22779;DHT22;11556;51.194;3.800;2023-09-18T01:31:56;21.80;99.90
22779;DHT22;11556;51.194;3.800;2023-09-18T01:34:25;21.70;99.90
22779;DHT22;11556;51.194;3.800;2023-09-18T01:36:52;21.70;99.90
22779;DHT22;11556;51.194;3.800;2023-09-18T01:39:19;21.80;99.90
22779;DHT22;11556;51.194;3.800;2023-09-18T01:41:45;21.80;99.90
22779;DHT22;11556;51.194;3.800;2023-09-18T01:44:12;21.70;99.90
22779;DHT22;11556;51.194;3.800;2023-09-18T01:46:38;21.70;99.90
22779;DHT22;11556;51.194;3.800;2023-09-18T01:49:04;21.70;99.90
22779;DHT22;11556;51.194;3.800;2023-09-18T01:51:30;21.80;99.90
22779;DHT22;11556;51.194;3.800;2023-09-18T01:53:56;21.80;99.90
22779;DHT22;11556;51.194;3.800;2023-09-18T01:56:23;21.60;99.90
22779;DHT22;11556;51.194;3.800;2023-09-18T01:58:49;21.40;99.90
22779;DHT22;11556;51.194;3.800;2023-09-18T02:01:14;21.40;99.90
22779;DHT22;11556;51.194;3.800;2023-09-18T02:03:40;21.40;99.90
22779;DHT22;11556;51.194;3.800;2023-09-18T02:06:09;21.50;99.90
22779;DHT22;11556;51.194;3.800;2023-09-18T02:08:35;21.40;99.90
22779;DHT22;11556;51.194;3.800;2023-09-18T02:11:01;21.40;99.90
22779;DHT22;11556;51.194;3.800;2023-09-18T02:13:28;21.40;99.90
22779;DHT22;11556;51.194;3.800;2023-09-18T02:15:54;21.40;99.90
22779;DHT22;11556;51.194;3.800;2023-09-18T02:18:21;21.40;99.90
22779;DHT22;11556;51.194;3.800;2023-09-18T02:20:46;21.40;99.90
22779;DHT22;11556;51.194;3.800;2023-09-18T02:23:15;21.20;99.90
22779;DHT22;11556;51.194;3.800;2023-09-18T02:25:40;21.20;99.90
22779;DHT22;11556;51.194;3.800;2023-09-18T02:28:07;21.20;99.90
22779;DHT22;11556;51.194;3.800;2023-09-18T02:30:32;21.10;99.90
22779;DHT22;11556;51.194;3.800;2023-09-18T02:32:58;21.10;99.90
22779;DHT22;11556;51.194;3.800;2023-09-18T02:35:25;21.20;99.90
22779;DHT22;11556;51.194;3.800;2023-09-18T02:37:51;21.20;99.90
22779;DHT22;11556;51.194;3.800;2023-09-18T02:40:17;21.10;99.90
22779;DHT22;11556;51.194;3.800;2023-09-18T02:42:43;21.10;99.90
22779;DHT22;11556;51.194;3.800;2023-09-18T02:45:09;21.20;99.90
22779;DHT22;11556;51.194;3.800;2023-09-18T02:47:35;21.20;99.90
22779;DHT22;11556;51.194;3.800;2023-09-18T02:50:04;21.20;99.90
22779;DHT22;11556;51.194;3.800;2023-09-18T02:52:30;21.20;99.90
22779;DHT22;11556;51.194;3.800;2023-09-18T02:54:56;21.10;99.90
22779;DHT22;11556;51.194;3.800;2023-09-18T02:57:22;21.20;99.90
22779;DHT22;11556;51.194;3.800;2023-09-18T02:59:47;21.10;99.90
22779;DHT22;11556;51.194;3.800;2023-09-18T03:02:13;21.10;99.90
22779;DHT22;11556;51.194;3.800;2023-09-18T03:04:39;21.10;99.90
22779;DHT22;11556;51.194;3.800;2023-09-18T03:07:04;21.00;99.90
22779;DHT22;11556;51.194;3.800;2023-09-18T03:09:30;21.10;99.90
22779;DHT22;11556;51.194;3.800;2023-09-18T03:11:56;21.00;99.90
22779;DHT22;11556;51.194;3.800;2023-09-18T03:14:21;20.90;99.90
22779;DHT22;11556;51.194;3.800;2023-09-18T03:16:47;20.90;99.90
22779;DHT22;11556;51.194;3.800;2023-09-18T03:19:13;21.00;99.90
22779;DHT22;11556;51.194;3.800;2023-09-18T03:21:38;21.00;99.90
22779;DHT22;11556;51.194;3.800;2023-09-18T03:24:04;21.00;99.90
22779;DHT22;11556;51.194;3.800;2023-09-18T03:26:30;21.00;99.90
22779;DHT22;11556;51.194;3.800;2023-09-18T03:28:56;21.00;99.90
22779;DHT22;11556;51.194;3.800;2023-09-18T03:31:21;21.00;99.90
22779;DHT22;11556;51.194;3.800;2023-09-18T03:33:47;21.00;99.90
22779;DHT22;11556;51.194;3.800;2023-09-18T03:36:13;21.10;99.90
22779;DHT22;11556;51.194;3.800;2023-09-18T03:38:39;21.10;99.90
22779;DHT22;11556;51.194;3.800;2023-09-18T03:41:04;21.10;99.90
22779;DHT22;11556;51.194;3.800;2023-09-18T03:43:30;20.90;99.90
22779;DHT22;11556;51.194;3.800;2023-09-18T03:46:06;20.90;99.90
22779;DHT22;11556;51.194;3.800;2023-09-18T03:48:32;20.80;99.90
22779;DHT22;11556;51.194;3.800;2023-09-18T03:51:03;20.90;99.90
22779;DHT22;11556;51.194;3.800;2023-09-18T03:53:29;20.90;99.90
22779;DHT22;11556;51.194;3.800;2023-09-18T03:55:55;20.90;99.90
22779;DHT22;11556;51.194;3.800;2023-09-18T03:58:21;20.90;99.90
22779;DHT22;11556;51.194;3.800;2023-09-18T04:00:46;20.90;99.90
22779;DHT22;11556;51.194;3.800;2023-09-18T04:03:12;20.90;99.90
22779;DHT22;11556;51.194;3.800;2023-09-18T04:05:38;20.90;99.90
22779;DHT22;11556;51.194;3.800;2023-09-18T04:08:03;20.80;99.90
22779;DHT22;11556;51.194;3.800;2023-09-18T04:10:29;20.80;99.90
22779;DHT22;11556;51.194;3.800;2023-09-18T04:12:55;20.80;99.90
22779;DHT22;11556;51.194;3.800;2023-09-18T04:15:20;20.90;99.90
22779;DHT22;11556;51.194;3.800;2023-09-18T04:17:48;21.00;99.90
22779;DHT22;11556;51.194;3.800;2023-09-18T04:20:14;21.00;99.90
22779;DHT22;11556;51.194;3.800;2023-09-18T04:22:47;21.00;99.90
22779;DHT22;11556;51.194;3.800;2023-09-18T04:25:17;20.90;99.90
22779;DHT22;11556;51.194;3.800;2023-09-18T04:27:44;20.70;99.90
22779;DHT22;11556;51.194;3.800;2023-09-18T04:30:10;20.50;99.90
22779;DHT22;11556;51.194;3.800;2023-09-18T04:32:37;20.30;99.90
22779;DHT22;11556;51.194;3.800;2023-09-18T04:35:03;20.20;99.90
22779;DHT22;11556;51.194;3.800;2023-09-18T04:37:30;20.10;99.90
22779;DHT22;11556;51.194;3.800;2023-09-18T04:39:57;20.10;99.90
22779;DHT22;11556;51.194;3.800;2023-09-18T04:42:23;20.00;99.90
22779;DHT22;11556;51.194;3.800;2023-09-18T04:44:49;20.00;99.90
22779;DHT22;11556;51.194;3.800;2023-09-18T04:47:14;19.90;99.90
22779;DHT22;11556;51.194;3.800;2023-09-18T04:49:40;19.80;99.90
22779;DHT22;11556;51.194;3.800;2023-09-18T04:52:06;19.70;99.90
22779;DHT22;11556;51.194;3.800;2023-09-18T04:54:31;19.80;99.90
22779;DHT22;11556;51.194;3.800;2023-09-18T04:56:57;19.70;99.90
22779;DHT22;11556;51.194;3.800;2023-09-18T04:59:23;19.70;99.90
22779;DHT22;11556;51.194;3.800;2023-09-18T05:01:48;19.70;99.90
22779;DHT22;11556;51.194;3.800;2023-09-18T05:04:14;19.70;99.90
22779;DHT22;11556;51.194;3.800;2023-09-18T05:06:40;19.70;99.90
22779;DHT22;11556;51.194;3.800;2023-09-18T05:09:07;19.60;99.90
22779;DHT22;11556;51.194;3.800;2023-09-18T05:11:33;19.50;99.90
22779;DHT22;11556;51.194;3.800;2023-09-18T05:13:59;19.50;99.90
22779;DHT22;11556;51.194;3.800;2023-09-18T05:16:25;19.50;99.90
22779;DHT22;11556;51.194;3.800;2023-09-18T05:18:50;19.30;99.90
22779;DHT22;11556;51.194;3.800;2023-09-18T05:21:16;19.30;99.90
22779;DHT22;11556;51.194;3.800;2023-09-18T05:23:47;19.30;99.90
22779;DHT22;11556;51.194;3.800;2023-09-18T05:26:13;19.20;99.90
22779;DHT22;11556;51.194;3.800;2023-09-18T05:28:39;19.20;99.90
22779;DHT22;11556;51.194;3.800;2023-09-18T05:31:04;19.20;99.90
22779;DHT22;11556;51.194;3.800;2023-09-18T05:33:30;19.30;99.90
22779;DHT22;11556;51.194;3.800;2023-09-18T05:35:56;19.20;99.90
22779;DHT22;11556;51.194;3.800;2023-09-18T05:38:21;19.20;99.90
22779;DHT22;11556;51.194;3.800;2023-09-18T05:40:47;19.30;99.90
22779;DHT22;11556;51.194;3.800;2023-09-18T05:43:14;19.20;99.90
22779;DHT22;11556;51.194;3.800;2023-09-18T05:45:40;19.20;99.90
22779;DHT22;11556;51.194;3.800;2023-09-18T05:48:05;19.10;99.90
22779;DHT22;11556;51.194;3.800;2023-09-18T05:50:33;19.10;99.90
22779;DHT22;11556;51.194;3.800;2023-09-18T05:53:00;19.10;99.90
22779;DHT22;11556;51.194;3.800;2023-09-18T05:55:33;19.10;99.90
22779;DHT22;11556;51.194;3.800;2023-09-18T05:57:59;19.10;99.90
22779;DHT22;11556;51.194;3.800;2023-09-18T06:00:25;19.10;99.90
22779;DHT22;11556;51.194;3.800;2023-09-18T06:02:51;19.20;99.90
22779;DHT22;11556;51.194;3.800;2023-09-18T06:05:17;19.10;99.90
22779;DHT22;11556;51.194;3.800;2023-09-18T06:07:43;19.00;99.90
22779;DHT22;11556;51.194;3.800;2023-09-18T06:10:10;19.00;99.90
22779;DHT22;11556;51.194;3.800;2023-09-18T06:12:38;19.00;99.90
22779;DHT22;11556;51.194;3.800;2023-09-18T06:15:04;19.10;99.90
22779;DHT22;11556;51.194;3.800;2023-09-18T06:17:31;19.20;99.90
22779;DHT22;11556;51.194;3.800;2023-09-18T06:19:56;19.30;99.90
22779;DHT22;11556;51.194;3.800;2023-09-18T06:22:22;19.30;99.90
22779;DHT22;11556;51.194;3.800;2023-09-18T06:24:47;19.20;99.90
22779;DHT22;11556;51.194;3.800;2023-09-18T06:27:13;19.10;99.90
22779;DHT22;11556;51.194;3.800;2023-09-18T06:29:39;19.20;99.90
22779;DHT22;11556;51.194;3.800;2023-09-18T06:32:04;19.20;99.90
22779;DHT22;11556;51.194;3.800;2023-09-18T06:34:31;19.40;99.90
22779;DHT22;11556;51.194;3.800;2023-09-18T06:36:57;19.50;99.90
22779;DHT22;11556;51.194;3.800;2023-09-18T06:39:22;19.60;99.90
22779;DHT22;11556;51.194;3.800;2023-09-18T06:41:49;19.60;99.90
22779;DHT22;11556;51.194;3.800;2023-09-18T06:44:15;19.70;99.90
22779;DHT22;11556;51.194;3.800;2023-09-18T06:46:40;19.90;99.90
22779;DHT22;11556;51.194;3.800;2023-09-18T06:49:06;20.00;99.90
22779;DHT22;11556;51.194;3.800;2023-09-18T06:51:32;20.10;99.90
22779;DHT22;11556;51.194;3.800;2023-09-18T06:53:58;20.10;99.90
22779;DHT22;11556;51.194;3.800;2023-09-18T06:56:24;20.20;99.90
22779;DHT22;11556;51.194;3.800;2023-09-18T06:58:50;20.20;99.90
22779;DHT22;11556;51.194;3.800;2023-09-18T07:01:17;20.40;99.90
22779;DHT22;11556;51.194;3.800;2023-09-18T07:03:45;20.70;99.90
22779;DHT22;11556;51.194;3.800;2023-09-18T07:06:13;20.80;99.90
22779;DHT22;11556;51.194;3.800;2023-09-18T07:08:39;20.90;99.90
22779;DHT22;11556;51.194;3.800;2023-09-18T07:11:05;21.10;99.90
22779;DHT22;11556;51.194;3.800;2023-09-18T07:13:30;21.20;99.90
22779;DHT22;11556;51.194;3.800;2023-09-18T07:15:56;21.50;99.90
22779;DHT22;11556;51.194;3.800;2023-09-18T07:18:21;21.60;99.90
22779;DHT22;11556;51.194;3.800;2023-09-18T07:20:48;21.90;99.90
22779;DHT22;11556;51.194;3.800;2023-09-18T07:23:13;22.00;99.90
22779;DHT22;11556;51.194;3.800;2023-09-18T07:25:39;22.00;99.90
22779;DHT22;11556;51.194;3.800;2023-09-18T07:28:06;21.70;99.90
22779;DHT22;11556;51.194;3.800;2023-09-18T07:30:32;21.50;99.90
22779;DHT22;11556;51.194;3.800;2023-09-18T07:32:57;21.80;99.90
22779;DHT22;11556;51.194;3.800;2023-09-18T07:35:23;21.80;99.90
22779;DHT22;11556;51.194;3.800;2023-09-18T07:37:49;21.70;99.90
22779;DHT22;11556;51.194;3.800;2023-09-18T07:40:15;21.70;99.90
22779;DHT22;11556;51.194;3.800;2023-09-18T07:42:43;22.00;99.90
22779;DHT22;11556;51.194;3.800;2023-09-18T07:45:10;22.30;99.90
22779;DHT22;11556;51.194;3.800;2023-09-18T07:47:36;22.60;99.90
22779;DHT22;11556;51.194;3.800;2023-09-18T07:50:02;22.50;99.90
22779;DHT22;11556;51.194;3.800;2023-09-18T07:52:28;22.60;99.90
22779;DHT22;11556;51.194;3.800;2023-09-18T07:54:54;22.80;99.90
22779;DHT22;11556;51.194;3.800;2023-09-18T07:57:20;22.90;99.90
22779;DHT22;11556;51.194;3.800;2023-09-18T07:59:48;22.80;99.90
22779;DHT22;11556;51.194;3.800;2023-09-18T08:02:14;22.40;99.90
22779;DHT22;11556;51.194;3.800;2023-09-18T08:04:39;22.30;99.90
22779;DHT22;11556;51.194;3.800;2023-09-18T08:07:05;22.10;99.90
22779;DHT22;11556;51.194;3.800;2023-09-18T08:09:33;22.00;99.90
22779;DHT22;11556;51.194;3.800;2023-09-18T08:12:05;21.90;99.90
22779;DHT22;11556;51.194;3.800;2023-09-18T08:14:31;21.80;99.90
22779;DHT22;11556;51.194;3.800;2023-09-18T08:17:01;21.70;99.90
22779;DHT22;11556;51.194;3.800;2023-09-18T08:19:27;21.70;99.90
22779;DHT22;11556;51.194;3.800;2023-09-18T08:21:53;21.60;99.90
22779;DHT22;11556;51.194;3.800;2023-09-18T08:24:20;21.60;99.90
22779;DHT22;11556;51.194;3.800;2023-09-18T08:26:46;21.50;99.90
22779;DHT22;11556;51.194;3.800;2023-09-18T08:29:12;21.30;99.90
22779;DHT22;11556;51.194;3.800;2023-09-18T08:31:38;21.40;99.90
22779;DHT22;11556;51.194;3.800;2023-09-18T08:34:04;21.30;99.90
22779;DHT22;11556;51.194;3.800;2023-09-18T08:36:30;21.40;99.90
22779;DHT22;11556;51.194;3.800;2023-09-18T08:38:56;21.30;99.90
22779;DHT22;11556;51.194;3.800;2023-09-18T08:41:23;21.20;99.90
22779;DHT22;11556;51.194;3.800;2023-09-18T08:43:52;21.10;99.90
22779;DHT22;11556;51.194;3.800;2023-09-18T08:46:22;21.40;99.90
22779;DHT22;11556;51.194;3.800;2023-09-18T08:48:48;22.40;99.90
22779;DHT22;11556;51.194;3.800;2023-09-18T08:51:16;23.40;99.90
22779;DHT22;11556;51.194;3.800;2023-09-18T08:53:43;24.00;99.90
22779;DHT22;11556;51.194;3.800;2023-09-18T08:56:10;24.60;99.90
22779;DHT22;11556;51.194;3.800;2023-09-18T08:58:39;25.00;99.90
22779;DHT22;11556;51.194;3.800;2023-09-18T09:01:08;25.80;99.90
22779;DHT22;11556;51.194;3.800;2023-09-18T09:03:42;25.80;99.90
22779;DHT22;11556;51.194;3.800;2023-09-18T09:06:09;25.50;99.90
22779;DHT22;11556;51.194;3.800;2023-09-18T09:08:36;25.30;99.90
22779;DHT22;11556;51.194;3.800;2023-09-18T09:11:02;24.90;99.90
22779;DHT22;11556;51.194;3.800;2023-09-18T09:13:28;24.80;99.90
22779;DHT22;11556;51.194;3.800;2023-09-18T09:15:56;24.50;99.90
22779;DHT22;11556;51.194;3.800;2023-09-18T09:18:27;24.10;99.90
22779;DHT22;11556;51.194;3.800;2023-09-18T09:20:55;24.00;99.90
22779;DHT22;11556;51.194;3.800;2023-09-18T09:23:26;23.70;99.90
22779;DHT22;11556;51.194;3.800;2023-09-18T09:25:52;23.60;99.90
22779;DHT22;11556;51.194;3.800;2023-09-18T09:28:31;23.70;99.90
22779;DHT22;11556;51.194;3.800;2023-09-18T09:31:01;23.40;99.90
22779;DHT22;11556;51.194;3.800;2023-09-18T09:33:30;23.10;99.90
22779;DHT22;11556;51.194;3.800;2023-09-18T09:35:56;23.10;99.90
22779;DHT22;11556;51.194;3.800;2023-09-18T09:38:32;23.30;99.90
22779;DHT22;11556;51.194;3.800;2023-09-18T09:41:00;23.20;99.90
22779;DHT22;11556;51.194;3.800;2023-09-18T09:43:27;23.00;99.90
22779;DHT22;11556;51.194;3.800;2023-09-18T09:46:00;22.80;99.90
22779;DHT22;11556;51.194;3.800;2023-09-18T09:48:26;22.90;99.90
22779;DHT22;11556;51.194;3.800;2023-09-18T09:50:52;22.90;99.90
22779;DHT22;11556;51.194;3.800;2023-09-18T09:53:44;23.20;99.90
22779;DHT22;11556;51.194;3.800;2023-09-18T09:56:14;23.50;99.90
22779;DHT22;11556;51.194;3.800;2023-09-18T09:58:40;23.70;99.90
22779;DHT22;11556;51.194;3.800;2023-09-18T10:01:12;23.90;99.90
22779;DHT22;11556;51.194;3.800;2023-09-18T10:03:43;24.30;99.90
22779;DHT22;11556;51.194;3.800;2023-09-18T10:06:09;24.20;99.90
22779;DHT22;11556;51.194;3.800;2023-09-18T10:08:39;24.00;99.90
22779;DHT22;11556;51.194;3.800;2023-09-18T10:11:09;23.90;99.90
22779;DHT22;11556;51.194;3.800;2023-09-18T10:13:47;24.10;99.90
22779;DHT22;11556;51.194;3.800;2023-09-18T10:16:17;24.20;99.90
22779;DHT22;11556;51.194;3.800;2023-09-18T10:24:28;25.60;99.90
22779;DHT22;11556;51.194;3.800;2023-09-18T10:27:00;25.60;99.90
22779;DHT22;11556;51.194;3.800;2023-09-18T10:29:27;26.00;99.90
22779;DHT22;11556;51.194;3.800;2023-09-18T10:31:54;25.50;99.90
22779;DHT22;11556;51.194;3.800;2023-09-18T10:34:21;25.50;99.90
22779;DHT22;11556;51.194;3.800;2023-09-18T10:36:48;25.50;99.90
22779;DHT22;11556;51.194;3.800;2023-09-18T10:39:14;25.90;99.90
22779;DHT22;11556;51.194;3.800;2023-09-18T10:41:47;26.10;99.90
22779;DHT22;11556;51.194;3.800;2023-09-18T10:44:14;26.60;99.90
22779;DHT22;11556;51.194;3.800;2023-09-18T10:46:41;27.10;99.90
22779;DHT22;11556;51.194;3.800;2023-09-18T10:49:07;27.50;99.90
22779;DHT22;11556;51.194;3.800;2023-09-18T10:51:32;27.80;99.90
22779;DHT22;11556;51.194;3.800;2023-09-18T10:54:03;27.30;99.90
22779;DHT22;11556;51.194;3.800;2023-09-18T10:56:30;27.10;99.90
22779;DHT22;11556;51.194;3.800;2023-09-18T10:59:00;27.30;99.90
22779;DHT22;11556;51.194;3.800;2023-09-18T11:01:28;27.40;99.90
22779;DHT22;11556;51.194;3.800;2023-09-18T11:04:01;28.00;99.90
22779;DHT22;11556;51.194;3.800;2023-09-18T11:06:27;28.10;99.90
22779;DHT22;11556;51.194;3.800;2023-09-18T11:09:05;28.00;99.90
22779;DHT22;11556;51.194;3.800;2023-09-18T11:11:32;28.00;99.90
22779;DHT22;11556;51.194;3.800;2023-09-18T11:14:01;28.10;99.90
22779;DHT22;11556;51.194;3.800;2023-09-18T11:21:30;28.30;99.90
22779;DHT22;11556;51.194;3.800;2023-09-18T11:24:01;28.70;99.90
22779;DHT22;11556;51.194;3.800;2023-09-18T11:26:35;28.60;99.90
22779;DHT22;11556;51.194;3.800;2023-09-18T11:29:05;28.30;99.90
22779;DHT22;11556;51.194;3.800;2023-09-18T11:31:53;28.30;99.90
22779;DHT22;11556;51.194;3.800;2023-09-18T11:34:24;28.50;99.90
22779;DHT22;11556;51.194;3.800;2023-09-18T11:36:52;28.40;99.90
22779;DHT22;11556;51.194;3.800;2023-09-18T11:42:18;28.00;99.90
22779;DHT22;11556;51.194;3.800;2023-09-18T11:44:45;27.80;99.90
22779;DHT22;11556;51.194;3.800;2023-09-18T11:47:17;27.00;99.90
22779;DHT22;11556;51.194;3.800;2023-09-18T11:49:57;26.40;99.90
22779;DHT22;11556;51.194;3.800;2023-09-18T11:52:30;26.80;99.90
22779;DHT22;11556;51.194;3.800;2023-09-18T11:54:58;27.00;99.90
22779;DHT22;11556;51.194;3.800;2023-09-18T11:57:25;27.00;99.90
22779;DHT22;11556;51.194;3.800;2023-09-18T11:59:51;27.30;99.90
22779;DHT22;11556;51.194;3.800;2023-09-18T12:02:28;27.00;99.90
22779;DHT22;11556;51.194;3.800;2023-09-18T12:05:05;27.30;99.90
22779;DHT22;11556;51.194;3.800;2023-09-18T12:07:32;27.60;99.90
22779;DHT22;11556;51.194;3.800;2023-09-18T12:09:57;27.60;99.90
22779;DHT22;11556;51.194;3.800;2023-09-18T12:12:23;28.10;99.90
22779;DHT22;11556;51.194;3.800;2023-09-18T12:14:52;28.10;98.90
22779;DHT22;11556;51.194;3.800;2023-09-18T12:17:17;28.40;99.30
22779;DHT22;11556;51.194;3.800;2023-09-18T12:19:53;28.20;98.50
22779;DHT22;11556;51.194;3.800;2023-09-18T12:22:29;28.80;97.50
22779;DHT22;11556;51.194;3.800;2023-09-18T12:25:12;28.80;96.60
22779;DHT22;11556;51.194;3.800;2023-09-18T12:27:39;28.10;96.40
22779;DHT22;11556;51.194;3.800;2023-09-18T12:30:06;27.60;98.50
22779;DHT22;11556;51.194;3.800;2023-09-18T12:32:32;27.70;98.60
22779;DHT22;11556;51.194;3.800;2023-09-18T12:35:02;27.70;99.50
22779;DHT22;11556;51.194;3.800;2023-09-18T12:37:39;27.70;99.50
22779;DHT22;11556;51.194;3.800;2023-09-18T12:40:06;27.70;98.00
22779;DHT22;11556;51.194;3.800;2023-09-18T12:42:37;27.40;99.40
22779;DHT22;11556;51.194;3.800;2023-09-18T12:45:09;27.20;99.90
22779;DHT22;11556;51.194;3.800;2023-09-18T12:47:35;27.00;99.80
22779;DHT22;11556;51.194;3.800;2023-09-18T12:50:05;26.80;99.90
22779;DHT22;11556;51.194;3.800;2023-09-18T12:52:32;26.70;99.90
22779;DHT22;11556;51.194;3.800;2023-09-18T12:54:58;26.40;99.90
22779;DHT22;11556;51.194;3.800;2023-09-18T12:57:27;26.70;99.90
22779;DHT22;11556;51.194;3.800;2023-09-18T12:59:54;26.50;99.80
22779;DHT22;11556;51.194;3.800;2023-09-18T13:02:20;26.50;99.90
22779;DHT22;11556;51.194;3.800;2023-09-18T13:04:56;26.70;99.90
22779;DHT22;11556;51.194;3.800;2023-09-18T13:07:23;26.30;99.90
22779;DHT22;11556;51.194;3.800;2023-09-18T13:10:03;25.90;99.90
22779;DHT22;11556;51.194;3.800;2023-09-18T13:12:48;25.70;99.90
22779;DHT22;11556;51.194;3.800;2023-09-18T13:15:27;25.50;99.90
22779;DHT22;11556;51.194;3.800;2023-09-18T13:17:54;25.20;99.90
22779;DHT22;11556;51.194;3.800;2023-09-18T13:20:25;25.00;99.90
22779;DHT22;11556;51.194;3.800;2023-09-18T13:22:54;24.60;99.90
22779;DHT22;11556;51.194;3.800;2023-09-18T13:25:24;23.80;99.90
22779;DHT22;11556;51.194;3.800;2023-09-18T13:27:51;23.20;99.90
22779;DHT22;11556;51.194;3.800;2023-09-18T13:30:17;22.50;99.90
22779;DHT22;11556;51.194;3.800;2023-09-18T13:32:47;21.70;99.90
22779;DHT22;11556;51.194;3.800;2023-09-18T13:35:18;20.40;99.90
22779;DHT22;11556;51.194;3.800;2023-09-18T13:37:44;19.60;99.90
22779;DHT22;11556;51.194;3.800;2023-09-18T13:40:11;18.90;99.90
22779;DHT22;11556;51.194;3.800;2023-09-18T13:42:39;18.70;99.90
22779;DHT22;11556;51.194;3.800;2023-09-18T13:45:05;18.50;99.90
22779;DHT22;11556;51.194;3.800;2023-09-18T13:47:34;18.40;99.90
22779;DHT22;11556;51.194;3.800;2023-09-18T13:50:01;18.40;99.90
22779;DHT22;11556;51.194;3.800;2023-09-18T13:52:28;18.40;99.90
22779;DHT22;11556;51.194;3.800;2023-09-18T13:54:55;18.40;99.90
22779;DHT22;11556;51.194;3.800;2023-09-18T13:57:21;18.80;99.90
22779;DHT22;11556;51.194;3.800;2023-09-18T13:59:48;19.10;99.90
22779;DHT22;11556;51.194;3.800;2023-09-18T14:02:15;19.10;99.90
22779;DHT22;11556;51.194;3.800;2023-09-18T14:04:42;19.30;99.90
22779;DHT22;11556;51.194;3.800;2023-09-18T14:07:08;19.90;99.90
22779;DHT22;11556;51.194;3.800;2023-09-18T14:09:35;20.60;99.90
22779;DHT22;11556;51.194;3.800;2023-09-18T14:12:01;21.10;99.90
22779;DHT22;11556;51.194;3.800;2023-09-18T14:14:28;21.80;99.90
22779;DHT22;11556;51.194;3.800;2023-09-18T14:16:54;22.40;99.90
22779;DHT22;11556;51.194;3.800;2023-09-18T14:19:20;22.80;99.90
22779;DHT22;11556;51.194;3.800;2023-09-18T14:21:46;23.00;99.90
22779;DHT22;11556;51.194;3.800;2023-09-18T14:24:12;22.80;99.90
22779;DHT22;11556;51.194;3.800;2023-09-18T14:26:37;22.50;99.90
22779;DHT22;11556;51.194;3.800;2023-09-18T14:29:09;22.80;99.90
22779;DHT22;11556;51.194;3.800;2023-09-18T14:31:39;23.20;99.90
22779;DHT22;11556;51.194;3.800;2023-09-18T14:34:05;23.00;99.90
22779;DHT22;11556;51.194;3.800;2023-09-18T14:36:34;23.30;99.90
22779;DHT22;11556;51.194;3.800;2023-09-18T14:39:00;23.50;99.90
22779;DHT22;11556;51.194;3.800;2023-09-18T14:41:27;23.70;99.90
22779;DHT22;11556;51.194;3.800;2023-09-18T14:43:53;23.70;99.90
22779;DHT22;11556;51.194;3.800;2023-09-18T14:46:18;23.40;99.90
22779;DHT22;11556;51.194;3.800;2023-09-18T14:48:45;23.50;99.90
22779;DHT22;11556;51.194;3.800;2023-09-18T14:51:11;23.70;99.90
22779;DHT22;11556;51.194;3.800;2023-09-18T14:53:37;23.80;99.90
22779;DHT22;11556;51.194;3.800;2023-09-18T14:56:03;24.00;99.90
22779;DHT22;11556;51.194;3.800;2023-09-18T14:58:30;24.10;99.90
22779;DHT22;11556;51.194;3.800;2023-09-18T15:00:57;23.90;99.90
22779;DHT22;11556;51.194;3.800;2023-09-18T15:03:23;23.80;99.90
22779;DHT22;11556;51.194;3.800;2023-09-18T15:05:52;23.70;99.90
22779;DHT22;11556;51.194;3.800;2023-09-18T15:08:19;23.80;99.90
22779;DHT22;11556;51.194;3.800;2023-09-18T15:10:45;23.90;99.90
22779;DHT22;11556;51.194;3.800;2023-09-18T15:13:11;23.90;99.90
22779;DHT22;11556;51.194;3.800;2023-09-18T15:15:37;24.10;99.90
22779;DHT22;11556;51.194;3.800;2023-09-18T15:18:03;24.10;99.90
22779;DHT22;11556;51.194;3.800;2023-09-18T15:20:29;24.30;99.90
22779;DHT22;11556;51.194;3.800;2023-09-18T15:22:54;24.30;99.90
22779;DHT22;11556;51.194;3.800;2023-09-18T15:25:21;24.20;99.90
22779;DHT22;11556;51.194;3.800;2023-09-18T15:27:48;24.10;99.90
22779;DHT22;11556;51.194;3.800;2023-09-18T15:30:14;24.10;99.90
22779;DHT22;11556;51.194;3.800;2023-09-18T15:32:55;23.70;99.90
22779;DHT22;11556;51.194;3.800;2023-09-18T15:35:25;23.50;99.90
22779;DHT22;11556;51.194;3.800;2023-09-18T15:37:52;23.70;99.90
22779;DHT22;11556;51.194;3.800;2023-09-18T15:40:19;24.10;99.90
22779;DHT22;11556;51.194;3.800;2023-09-18T15:42:46;24.10;99.90
22779;DHT22;11556;51.194;3.800;2023-09-18T15:45:13;23.70;99.90